createdAt,value
2022-10-13T00:01:25.630Z,19.10
2022-10-13T00:03:55.063Z,21.10
2022-10-13T00:06:27.475Z,22.30
2022-10-13T00:08:56.879Z,21.60
2022-10-13T00:11:28.257Z,22.30
2022-10-13T00:13:59.967Z,20.70
2022-10-13T00:16:33.027Z,21.40
2022-10-13T00:19:02.334Z,20.50
2022-10-13T00:21:30.851Z,21.80
2022-10-13T00:23:59.721Z,21.60
2022-10-13T00:26:28.473Z,22.20
2022-10-13T00:28:57.434Z,23.20
2022-10-13T00:31:29.863Z,22.00
2022-10-13T00:33:59.983Z,17.40
2022-10-13T00:36:29.347Z,16.20
2022-10-13T00:38:58.638Z,18.20
2022-10-13T00:41:27.425Z,17.80
2022-10-13T00:44:19.104Z,18.20
2022-10-13T00:46:47.594Z,15.20
2022-10-13T00:49:16.120Z,14.20
2022-10-13T00:51:50.465Z,14.20
2022-10-13T00:54:25.087Z,14.30
2022-10-13T00:56:54.515Z,14.40
2022-10-13T00:59:29.401Z,14.80
2022-10-13T01:01:59.699Z,14.10
2022-10-13T01:04:34.902Z,12.80
2022-10-13T01:07:04.809Z,13.70
2022-10-13T01:09:38.010Z,14.50
2022-10-13T01:12:48.788Z,14.70
2022-10-13T01:15:43.199Z,14.60
2022-10-13T01:18:25.661Z,14.70
2022-10-13T01:21:58.863Z,13.30
2022-10-13T01:25:09.509Z,13.80
2022-10-13T01:28:28.088Z,13.60
2022-10-13T01:31:10.752Z,13.90
2022-10-13T01:33:56.835Z,14.20
2022-10-13T01:36:57.598Z,13.20
2022-10-13T01:39:44.766Z,14.00
2022-10-13T01:42:31.592Z,14.40
2022-10-13T01:45:02.841Z,14.20
2022-10-13T01:47:34.608Z,14.80
2022-10-13T01:50:06.470Z,13.40
2022-10-13T01:52:39.466Z,13.60
2022-10-13T01:55:11.564Z,13.90
2022-10-13T01:57:43.816Z,13.80
2022-10-13T02:00:19.226Z,13.40
2022-10-13T02:03:08.754Z,14.40
2022-10-13T02:06:02.501Z,13.20
2022-10-13T02:08:45.304Z,15.00
2022-10-13T02:11:22.448Z,13.80
2022-10-13T02:14:28.293Z,13.90
2022-10-13T02:17:01.983Z,13.40
2022-10-13T02:19:34.433Z,13.80
2022-10-13T02:22:04.600Z,14.10
2022-10-13T02:24:33.445Z,13.40
2022-10-13T02:27:02.306Z,13.90
2022-10-13T02:29:30.951Z,13.40
2022-10-13T02:31:59.474Z,14.10
2022-10-13T02:34:28.143Z,13.20
2022-10-13T02:36:56.894Z,13.10
2022-10-13T02:39:25.443Z,13.10
2022-10-13T02:41:53.958Z,12.70
2022-10-13T02:44:25.067Z,13.30
2022-10-13T02:46:53.598Z,12.10
2022-10-13T02:49:22.241Z,11.50
2022-10-13T02:51:50.800Z,11.80
2022-10-13T02:54:19.829Z,11.60
2022-10-13T02:56:48.438Z,11.20
2022-10-13T02:59:17.087Z,10.40
2022-10-13T03:01:45.671Z,11.30
2022-10-13T03:04:14.298Z,11.70
2022-10-13T03:06:42.804Z,11.30
2022-10-13T03:09:12.383Z,11.00
2022-10-13T03:11:43.363Z,12.00
2022-10-13T03:14:11.949Z,10.60
2022-10-13T03:16:40.736Z,11.40
2022-10-13T03:19:11.938Z,11.20
2022-10-13T03:21:40.603Z,11.10
2022-10-13T03:24:09.375Z,11.70
2022-10-13T03:26:38.314Z,10.00
2022-10-13T03:29:06.813Z,11.00
2022-10-13T03:31:35.683Z,11.00
2022-10-13T03:34:04.235Z,10.60
2022-10-13T03:36:32.771Z,11.30
2022-10-13T03:39:01.388Z,9.80
2022-10-13T03:41:29.956Z,10.80
2022-10-13T03:43:58.469Z,11.70
2022-10-13T03:46:30.222Z,11.60
2022-10-13T03:48:59.898Z,11.40
2022-10-13T03:51:30.926Z,11.10
2022-10-13T03:53:59.620Z,10.70
2022-10-13T03:56:28.717Z,9.90
2022-10-13T03:59:00.636Z,11.50
2022-10-13T04:01:30.927Z,10.70
2022-10-13T04:04:02.626Z,10.90
2022-10-13T04:06:31.934Z,11.40
2022-10-13T04:09:00.538Z,10.10
2022-10-13T04:11:29.702Z,10.50
2022-10-13T04:13:59.069Z,10.70
2022-10-13T04:16:31.336Z,11.50
2022-10-13T04:19:05.659Z,10.30
2022-10-13T04:21:35.965Z,10.10
2022-10-13T04:24:06.068Z,9.30
2022-10-13T04:26:36.572Z,10.50
2022-10-13T04:29:11.158Z,11.20
2022-10-13T04:31:42.995Z,10.80
2022-10-13T04:34:12.404Z,9.80
2022-10-13T04:36:40.969Z,9.40
2022-10-13T04:39:09.489Z,10.00
2022-10-13T04:41:38.044Z,9.90
2022-10-13T04:44:06.559Z,10.20
2022-10-13T04:46:35.169Z,10.50
2022-10-13T04:49:04.934Z,11.00
2022-10-13T04:51:33.823Z,10.80
2022-10-13T04:54:03.492Z,10.40
2022-10-13T04:56:32.591Z,10.00
2022-10-13T04:59:06.082Z,9.60
2022-10-13T05:01:36.146Z,9.80
2022-10-13T05:04:08.124Z,9.10
2022-10-13T05:07:05.364Z,9.40
2022-10-13T05:09:30.944Z,8.00
2022-10-13T05:11:59.517Z,8.70
2022-10-13T05:14:28.172Z,9.00
2022-10-13T05:16:56.736Z,8.90
2022-10-13T05:19:25.279Z,9.30
2022-10-13T05:21:53.817Z,9.10
2022-10-13T05:24:31.171Z,8.20
2022-10-13T05:26:59.871Z,9.10
2022-10-13T05:29:28.871Z,9.30
2022-10-13T05:31:57.510Z,7.90
2022-10-13T05:34:26.183Z,9.60
2022-10-13T05:36:54.750Z,8.10
2022-10-13T05:39:23.314Z,9.30
2022-10-13T05:41:51.834Z,10.00
2022-10-13T05:44:23.199Z,10.30
2022-10-13T05:46:55.010Z,10.00
2022-10-13T05:49:23.584Z,10.10
2022-10-13T05:52:04.299Z,10.90
2022-10-13T05:54:46.956Z,9.30
2022-10-13T05:57:24.581Z,8.90
2022-10-13T05:59:58.429Z,8.30
2022-10-13T06:02:35.174Z,8.20
2022-10-13T06:05:06.396Z,9.50
2022-10-13T06:07:35.086Z,8.60
2022-10-13T06:10:03.898Z,8.90
2022-10-13T06:12:32.488Z,8.10
2022-10-13T06:15:05.279Z,8.60
2022-10-13T06:17:39.331Z,8.40
2022-10-13T06:22:38.126Z,8.90
2022-10-13T06:25:07.862Z,8.40
2022-10-13T06:27:36.459Z,8.80
2022-10-13T06:30:05.849Z,8.90
2022-10-13T06:32:34.700Z,9.60
2022-10-13T06:35:03.747Z,9.30
2022-10-13T06:37:32.373Z,8.70
2022-10-13T06:40:00.989Z,8.20
2022-10-13T06:42:32.308Z,8.10
2022-10-13T06:45:10.857Z,8.00
2022-10-13T06:47:42.093Z,8.50
2022-10-13T06:50:10.989Z,9.20
2022-10-13T06:52:39.777Z,8.70
2022-10-13T06:55:08.767Z,9.60
2022-10-13T06:57:38.401Z,9.30
2022-10-13T07:00:09.032Z,9.10
2022-10-13T07:02:39.208Z,8.40
2022-10-13T07:05:08.373Z,9.20
2022-10-13T07:07:36.920Z,9.30
2022-10-13T07:10:06.348Z,8.00
2022-10-13T07:12:34.953Z,9.20
2022-10-13T07:15:03.929Z,8.50
2022-10-13T07:17:32.436Z,8.60
2022-10-13T07:20:07.372Z,8.10
2022-10-13T07:22:44.500Z,8.70
2022-10-13T07:25:13.369Z,8.00
2022-10-13T07:27:42.284Z,8.00
2022-10-13T07:30:12.742Z,8.10
2022-10-13T07:32:42.530Z,8.50
2022-10-13T07:35:12.111Z,8.40
2022-10-13T07:37:40.799Z,8.60
2022-10-13T07:40:10.190Z,9.00
2022-10-13T07:42:50.865Z,11.00
2022-10-13T07:45:19.388Z,7.70
2022-10-13T07:47:48.024Z,7.40
2022-10-13T07:50:16.678Z,9.30
2022-10-13T07:52:45.304Z,8.80
2022-10-13T07:55:14.044Z,8.90
2022-10-13T07:57:42.558Z,10.60
2022-10-13T08:00:12.250Z,9.50
2022-10-13T08:02:43.736Z,9.70
2022-10-13T08:05:12.294Z,9.60
2022-10-13T08:07:40.871Z,10.80
2022-10-13T08:10:09.803Z,10.70
2022-10-13T08:12:38.737Z,11.20
2022-10-13T08:15:09.556Z,11.40
2022-10-13T08:17:38.267Z,12.20
2022-10-13T08:20:07.925Z,12.30
2022-10-13T08:22:36.678Z,14.40
2022-10-13T08:25:07.456Z,16.50
2022-10-13T08:27:50.660Z,15.80
2022-10-13T08:32:48.915Z,13.60
2022-10-13T08:35:17.557Z,13.20
2022-10-13T08:37:46.075Z,12.00
2022-10-13T08:40:23.133Z,11.40
2022-10-13T08:42:54.534Z,11.30
2022-10-13T08:45:45.921Z,11.40
2022-10-13T08:48:27.987Z,10.70
2022-10-13T08:51:03.416Z,11.10
2022-10-13T08:53:37.515Z,10.50
2022-10-13T08:56:42.748Z,10.20
2022-10-13T08:59:15.037Z,10.30
2022-10-13T09:01:49.095Z,10.10
2022-10-13T09:04:36.574Z,10.70
2022-10-13T09:07:19.908Z,10.30
2022-10-13T09:09:54.876Z,10.20
2022-10-13T09:12:26.493Z,10.10
2022-10-13T09:15:12.205Z,10.80
2022-10-13T09:17:42.002Z,10.40
2022-10-13T09:20:25.140Z,11.20
2022-10-13T09:23:07.578Z,10.80
2022-10-13T09:25:45.900Z,10.80
2022-10-13T09:28:27.676Z,12.50
2022-10-13T09:31:26.927Z,11.00
2022-10-13T09:34:18.942Z,11.50
2022-10-13T09:37:06.852Z,10.50
2022-10-13T09:39:35.381Z,9.60
2022-10-13T09:42:27.118Z,10.00
2022-10-13T09:45:15.874Z,10.00
2022-10-13T09:48:05.955Z,13.00
2022-10-13T09:50:35.900Z,10.50
2022-10-13T09:53:35.619Z,9.90
2022-10-13T09:56:19.656Z,10.00
2022-10-13T09:59:13.421Z,9.70
2022-10-13T10:01:46.429Z,10.40
2022-10-13T10:04:20.588Z,10.70
2022-10-13T10:06:49.442Z,11.00
2022-10-13T10:09:33.616Z,9.50
2022-10-13T10:12:04.103Z,10.00
2022-10-13T10:14:37.027Z,9.50
2022-10-13T10:19:45.639Z,9.40
2022-10-13T10:22:38.395Z,13.40
2022-10-13T10:25:42.048Z,12.40
2022-10-13T10:28:32.111Z,10.00
2022-10-13T10:31:36.789Z,10.40
2022-10-13T10:34:35.826Z,9.90
2022-10-13T10:37:25.591Z,9.60
2022-10-13T10:40:04.244Z,9.70
2022-10-13T10:42:52.558Z,11.20
2022-10-13T10:45:27.013Z,13.30
2022-10-13T10:48:14.801Z,16.60
2022-10-13T10:50:43.452Z,9.50
2022-10-13T10:53:45.855Z,10.60
2022-10-13T10:56:32.113Z,10.60
2022-10-13T10:59:36.900Z,10.10
2022-10-13T11:02:08.451Z,9.70
2022-10-13T11:04:49.407Z,10.10
2022-10-13T11:07:23.972Z,10.20
2022-10-13T11:10:14.474Z,11.00
2022-10-13T11:12:52.254Z,10.20
2022-10-13T11:15:31.282Z,11.10
2022-10-13T11:17:59.790Z,10.20
2022-10-13T11:20:59.431Z,11.60
2022-10-13T11:23:34.117Z,11.00
2022-10-13T11:26:43.350Z,11.00
2022-10-13T11:29:20.057Z,11.10
2022-10-13T11:31:55.364Z,10.60
2022-10-13T11:34:32.219Z,9.90
2022-10-13T11:37:03.202Z,10.10
2022-10-13T11:39:37.935Z,9.90
2022-10-13T11:42:35.251Z,10.50
2022-10-13T11:45:34.702Z,9.60
2022-10-13T11:48:24.210Z,11.70
2022-10-13T11:51:26.193Z,11.20
2022-10-13T11:54:19.551Z,10.40
2022-10-13T11:59:37.770Z,10.70
2022-10-13T12:02:07.370Z,9.90
2022-10-13T12:04:36.021Z,9.90
2022-10-13T12:07:09.508Z,9.90
2022-10-13T12:09:54.492Z,9.60
2022-10-13T12:12:24.724Z,9.30
2022-10-13T12:15:01.072Z,9.40
2022-10-13T12:17:39.208Z,9.90
2022-10-13T12:20:28.059Z,9.30
2022-10-13T12:22:57.855Z,9.20
2022-10-13T12:25:29.456Z,9.70
2022-10-13T12:28:01.591Z,9.60
2022-10-13T12:30:38.706Z,10.40
2022-10-13T12:33:35.471Z,11.40
2022-10-13T12:36:22.883Z,9.20
2022-10-13T12:38:57.065Z,10.30
2022-10-13T12:41:35.696Z,9.00
2022-10-13T12:44:06.963Z,9.00
2022-10-13T12:46:40.593Z,9.40
2022-10-13T12:49:23.740Z,9.70
2022-10-13T12:52:14.611Z,10.00
2022-10-13T12:54:55.538Z,10.50
2022-10-13T12:57:38.168Z,9.50
2022-10-13T13:00:30.982Z,11.20
2022-10-13T13:03:03.773Z,10.00
2022-10-13T13:05:51.640Z,9.80
2022-10-13T13:08:31.870Z,10.20
2022-10-13T13:11:03.904Z,10.70
2022-10-13T13:13:32.407Z,10.50
2022-10-13T13:16:18.550Z,10.00
2022-10-13T13:18:51.887Z,10.60
2022-10-13T13:21:21.087Z,10.30
2022-10-13T13:23:53.691Z,11.10
2022-10-13T13:28:56.725Z,10.10
2022-10-13T13:31:26.674Z,15.80
2022-10-13T13:33:55.293Z,10.80
2022-10-13T13:36:26.129Z,9.50
2022-10-13T13:38:54.923Z,9.30
2022-10-13T13:41:27.870Z,9.10
2022-10-13T13:46:27.852Z,9.30
2022-10-13T13:48:56.649Z,8.30
2022-10-13T13:51:25.376Z,8.70
2022-10-13T13:53:54.026Z,8.70
2022-10-13T13:56:22.606Z,9.30
2022-10-13T13:58:51.157Z,9.40
2022-10-13T14:01:19.698Z,8.90
2022-10-13T14:03:48.350Z,8.90
2022-10-13T14:06:20.835Z,7.80
2022-10-13T14:08:50.211Z,8.60
2022-10-13T14:11:19.237Z,8.40
2022-10-13T14:13:47.869Z,9.00
2022-10-13T14:16:18.352Z,8.90
2022-10-13T14:18:46.969Z,7.90
2022-10-13T14:21:15.471Z,9.10
2022-10-13T14:23:47.145Z,9.40
2022-10-13T14:26:16.191Z,9.00
2022-10-13T14:28:45.724Z,8.50
2022-10-13T14:31:14.296Z,9.30
2022-10-13T14:33:44.108Z,8.40
2022-10-13T14:36:12.693Z,9.70
2022-10-13T14:38:41.203Z,8.60
2022-10-13T14:41:10.004Z,8.20
2022-10-13T14:43:42.706Z,9.00
2022-10-13T14:46:11.595Z,9.30
2022-10-13T14:48:40.160Z,10.40
2022-10-13T14:51:10.966Z,9.00
2022-10-13T14:53:42.807Z,8.90
2022-10-13T14:56:26.600Z,9.00
2022-10-13T14:59:02.506Z,9.20
2022-10-13T15:01:38.814Z,8.60
2022-10-13T15:04:10.676Z,9.40
2022-10-13T15:06:40.385Z,9.40
2022-10-13T15:09:10.145Z,8.40
2022-10-13T15:11:39.071Z,8.30
2022-10-13T15:14:08.069Z,9.00
2022-10-13T15:16:38.098Z,9.80
2022-10-13T15:19:06.826Z,9.50
2022-10-13T15:21:35.651Z,9.50
2022-10-13T15:24:04.912Z,8.80
2022-10-13T15:26:36.967Z,9.60
2022-10-13T15:29:05.599Z,10.10
2022-10-13T15:31:34.101Z,11.10
2022-10-13T15:34:02.720Z,9.70
2022-10-13T15:36:31.273Z,9.30
2022-10-13T15:38:59.768Z,10.20
2022-10-13T15:41:28.363Z,9.90
2022-10-13T15:43:56.912Z,9.90
2022-10-13T15:46:27.548Z,9.80
2022-10-13T15:48:56.932Z,9.60
2022-10-13T15:51:27.156Z,9.10
2022-10-13T15:53:55.942Z,9.40
2022-10-13T15:56:24.947Z,10.90
2022-10-13T15:58:53.918Z,10.50
2022-10-13T16:01:22.630Z,10.40
2022-10-13T16:03:55.411Z,10.10
2022-10-13T16:06:25.035Z,9.90
2022-10-13T16:08:53.839Z,10.00
2022-10-13T16:11:23.747Z,10.10
2022-10-13T16:13:52.771Z,10.20
2022-10-13T16:16:22.588Z,10.80
2022-10-13T16:18:51.625Z,10.50
2022-10-13T16:21:26.254Z,10.60
2022-10-13T16:23:54.899Z,10.50
2022-10-13T16:26:24.294Z,10.00
2022-10-13T16:28:56.983Z,10.00
2022-10-13T16:31:25.809Z,9.80
2022-10-13T16:33:54.732Z,10.30
2022-10-13T16:36:24.801Z,10.10
2022-10-13T16:38:55.225Z,10.20
2022-10-13T16:41:24.443Z,10.70
2022-10-13T16:43:53.161Z,11.10
2022-10-13T16:46:21.744Z,9.00
2022-10-13T16:48:50.359Z,9.80
2022-10-13T16:51:22.736Z,10.10
2022-10-13T16:54:03.581Z,10.20
2022-10-13T16:56:33.399Z,10.70
2022-10-13T16:59:05.299Z,11.40
2022-10-13T17:01:36.444Z,9.80
2022-10-13T17:04:05.331Z,12.70
2022-10-13T17:06:34.077Z,11.00
2022-10-13T17:09:03.496Z,10.70
2022-10-13T17:11:37.735Z,10.70
2022-10-13T17:14:06.981Z,10.50
2022-10-13T17:16:36.259Z,11.50
2022-10-13T17:19:05.005Z,11.20
2022-10-13T17:21:37.626Z,10.70
2022-10-13T17:24:07.758Z,11.00
2022-10-13T17:26:36.895Z,11.30
2022-10-13T17:29:05.551Z,10.50
2022-10-13T17:31:34.159Z,12.50
2022-10-13T17:34:02.908Z,11.50
2022-10-13T17:36:34.600Z,11.50
2022-10-13T17:39:11.511Z,10.90
2022-10-13T17:41:41.533Z,11.80
2022-10-13T17:44:11.457Z,11.80
2022-10-13T17:46:42.490Z,12.30
2022-10-13T17:49:12.815Z,11.10
2022-10-13T17:51:42.983Z,11.20
2022-10-13T17:54:15.987Z,11.40
2022-10-13T17:56:47.610Z,13.50
2022-10-13T17:59:17.820Z,13.50
2022-10-13T18:01:46.901Z,11.90
2022-10-13T18:04:19.342Z,11.80
2022-10-13T18:06:48.126Z,11.70
2022-10-13T18:09:20.442Z,12.80
2022-10-13T18:11:51.164Z,12.10
2022-10-13T18:14:25.116Z,13.80
2022-10-13T18:16:53.790Z,11.40
2022-10-13T18:19:25.101Z,12.70
2022-10-13T18:21:53.711Z,11.40
2022-10-13T18:24:22.479Z,11.30
2022-10-13T18:26:51.194Z,12.40
2022-10-13T18:29:20.464Z,12.50
2022-10-13T18:31:49.087Z,13.10
2022-10-13T18:34:17.952Z,11.30
2022-10-13T18:36:51.061Z,11.30
2022-10-13T18:39:21.797Z,11.30
2022-10-13T18:41:51.745Z,11.70
2022-10-13T18:44:26.800Z,10.70
2022-10-13T18:47:03.739Z,11.10
2022-10-13T18:49:35.191Z,10.50
2022-10-13T18:52:04.373Z,10.70
2022-10-13T18:54:33.300Z,9.90
2022-10-13T18:57:02.011Z,10.90
2022-10-13T18:59:42.012Z,10.40
2022-10-13T19:02:14.947Z,11.20
2022-10-13T19:04:43.486Z,10.40
2022-10-13T19:07:12.136Z,10.00
2022-10-13T19:09:40.717Z,10.50
2022-10-13T19:12:09.334Z,9.80
2022-10-13T19:14:38.013Z,10.50
2022-10-13T19:17:06.560Z,10.40
2022-10-13T19:19:38.249Z,10.90
2022-10-13T19:22:08.001Z,10.50
2022-10-13T19:24:36.759Z,10.50
2022-10-13T19:27:05.343Z,11.00
2022-10-13T19:29:35.709Z,10.90
2022-10-13T19:32:04.485Z,10.20
2022-10-13T19:34:33.503Z,11.30
2022-10-13T19:37:03.685Z,11.20
2022-10-13T19:39:32.309Z,26.10
2022-10-13T19:42:01.799Z,12.40
2022-10-13T19:44:36.057Z,12.50
2022-10-13T19:47:13.222Z,11.90
2022-10-13T19:49:42.319Z,11.60
2022-10-13T19:52:10.914Z,12.60
2022-10-13T19:54:40.302Z,12.10
2022-10-13T19:57:10.252Z,13.50
2022-10-13T19:59:38.866Z,11.70
2022-10-13T20:02:07.438Z,11.70
2022-10-13T20:04:36.209Z,12.00
2022-10-13T20:07:07.450Z,12.90
2022-10-13T20:09:38.875Z,13.70
2022-10-13T20:12:09.073Z,12.50
2022-10-13T20:14:42.087Z,13.70
2022-10-13T20:17:10.631Z,12.40
2022-10-13T20:19:39.215Z,12.60
2022-10-13T20:22:07.924Z,12.80
2022-10-13T20:24:36.546Z,12.20
2022-10-13T20:27:05.082Z,12.80
2022-10-13T20:29:33.583Z,12.30
2022-10-13T20:32:02.254Z,12.30
2022-10-13T20:34:31.680Z,13.30
2022-10-13T20:37:00.435Z,12.90
2022-10-13T20:39:29.943Z,12.80
2022-10-13T20:41:58.990Z,13.30
2022-10-13T20:44:27.906Z,13.50
2022-10-13T20:46:56.643Z,14.70
2022-10-13T20:49:26.372Z,13.40
2022-10-13T20:51:54.870Z,13.50
2022-10-13T20:54:23.703Z,13.10
2022-10-13T20:56:53.066Z,12.50
2022-10-13T20:59:21.532Z,13.20
2022-10-13T21:01:50.244Z,13.10
2022-10-13T21:04:18.810Z,12.60
2022-10-13T21:06:47.323Z,12.00
2022-10-13T21:09:15.966Z,12.10
2022-10-13T21:12:05.046Z,12.10
2022-10-13T21:14:43.428Z,12.30
2022-10-13T21:17:23.207Z,12.20
2022-10-13T21:19:55.708Z,11.60
2022-10-13T21:22:24.467Z,12.60
2022-10-13T21:24:53.693Z,11.40
2022-10-13T21:27:22.741Z,12.20
2022-10-13T21:29:51.756Z,11.70
2022-10-13T21:32:40.091Z,12.30
2022-10-13T21:35:17.391Z,12.00
2022-10-13T21:37:46.088Z,12.00
2022-10-13T21:40:15.122Z,11.70
2022-10-13T21:42:43.811Z,11.50
2022-10-13T21:45:12.658Z,11.60
2022-10-13T21:47:41.438Z,10.80
2022-10-13T21:50:10.423Z,11.40
2022-10-13T21:52:38.955Z,11.00
2022-10-13T21:55:08.321Z,11.30
2022-10-13T21:57:36.929Z,12.10
2022-10-13T22:00:06.865Z,12.20
2022-10-13T22:03:01.147Z,11.50
2022-10-13T22:05:43.004Z,12.10
2022-10-13T22:08:11.531Z,10.30
2022-10-13T22:10:40.035Z,11.20
2022-10-13T22:13:08.602Z,11.90
2022-10-13T22:15:37.112Z,10.90
2022-10-13T22:18:05.872Z,11.20
2022-10-13T22:20:37.426Z,10.10
2022-10-13T22:23:06.111Z,11.00
2022-10-13T22:25:35.334Z,10.60
2022-10-13T22:28:03.912Z,10.90
2022-10-13T22:30:32.471Z,10.90
2022-10-13T22:33:01.060Z,10.10
2022-10-13T22:35:29.823Z,10.80
2022-10-13T22:37:58.311Z,10.40
2022-10-13T22:40:26.962Z,10.80
2022-10-13T22:42:55.465Z,10.50
2022-10-13T22:45:24.232Z,9.70
2022-10-13T22:47:52.957Z,9.50
2022-10-13T22:50:21.524Z,10.10
2022-10-13T22:52:51.193Z,10.40
2022-10-13T22:55:19.738Z,10.20
2022-10-13T22:57:48.349Z,9.70
2022-10-13T23:00:17.132Z,9.20
2022-10-13T23:02:47.776Z,10.20
2022-10-13T23:05:16.268Z,10.60
2022-10-13T23:07:44.831Z,10.10
2022-10-13T23:10:13.421Z,9.20
2022-10-13T23:12:43.878Z,9.60
2022-10-13T23:15:12.468Z,9.60
2022-10-13T23:17:52.663Z,8.70
2022-10-13T23:20:21.290Z,8.50
2022-10-13T23:22:53.320Z,8.20
2022-10-13T23:25:21.902Z,8.10
2022-10-13T23:27:50.435Z,7.80
2022-10-13T23:30:19.161Z,7.80
2022-10-13T23:32:47.723Z,8.40
2022-10-13T23:35:16.828Z,8.20
2022-10-13T23:37:45.421Z,8.50
2022-10-13T23:40:14.035Z,7.80
2022-10-13T23:42:42.538Z,8.00
2022-10-13T23:45:11.469Z,8.00
2022-10-13T23:47:39.988Z,8.10
2022-10-13T23:50:09.194Z,8.20
2022-10-13T23:52:37.776Z,8.50
2022-10-13T23:55:06.605Z,7.70
2022-10-13T23:57:35.141Z,7.80
